Time;durP1;ratioP1;P1;durP2;ratioP2;P2;SDS_P1;SDS_P2;PMS_P1;PMS_P2;Temp;Humidity;BMP_temperature;BMP_pressure;BME280_temperature;BME280_humidity;BME280_pressure;Samples;Min_cycle;Max_cycle;Signal;HPM_P1;HPM_P2
2023/05/08 00:02:09;;;;;;;14.40;11.20;;;;;;;5.37;76.11;98026.09;108906;1250;101472;-75
2023/05/08 00:04:37;;;;;;;15.30;12.20;;;;;;;5.35;76.19;98024.02;108922;1250;100094;-73
2023/05/08 00:07:05;;;;;;;13.90;11.20;;;;;;;5.34;76.15;98020.30;108875;1250;95554;-74
2023/05/08 00:09:33;;;;;;;17.40;12.20;;;;;;;5.34;76.14;98014.77;108925;1250;97049;-75
2023/05/08 00:12:02;;;;;;;15.30;11.70;;;;;;;5.35;76.24;98015.21;108921;1250;103657;-74
2023/05/08 00:14:30;;;;;;;15.50;10.80;;;;;;;5.37;76.18;98015.69;108900;1250;101525;-73
2023/05/08 00:16:58;;;;;;;15.70;12.40;;;;;;;5.39;76.09;98016.97;108856;1250;100035;-73
2023/05/08 00:19:26;;;;;;;12.90;11.00;;;;;;;5.40;76.15;98016.23;108602;1250;96832;-73
2023/05/08 00:21:54;;;;;;;15.40;11.50;;;;;;;5.42;76.15;98020.56;108599;1251;96237;-72
2023/05/08 00:24:22;;;;;;;13.60;11.30;;;;;;;5.43;76.23;98013.29;108943;1250;103706;-77
2023/05/08 00:26:50;;;;;;;13.10;10.50;;;;;;;5.42;76.20;98016.61;108901;1250;101792;-72
2023/05/08 00:29:18;;;;;;;13.70;10.60;;;;;;;5.43;76.24;98014.52;108911;1250;99972;-73
2023/05/08 00:31:46;;;;;;;14.00;11.50;;;;;;;5.46;76.21;98013.21;108901;1250;95768;-75
2023/05/08 00:34:14;;;;;;;12.70;10.10;;;;;;;5.47;76.20;98014.02;108858;1250;96014;-73
2023/05/08 00:36:42;;;;;;;13.10;10.20;;;;;;;5.48;76.22;98018.12;108711;1250;103627;-72
2023/05/08 00:39:11;;;;;;;13.50;10.60;;;;;;;5.50;76.26;98017.22;108803;1250;101737;-73
2023/05/08 00:41:39;;;;;;;12.60;10.00;;;;;;;5.51;76.16;98017.80;108884;1250;99072;-76
2023/05/08 00:44:07;;;;;;;12.40;9.40;;;;;;;5.53;76.16;98023.52;108871;1253;95541;-73
2023/05/08 00:46:36;;;;;;;11.00;8.60;;;;;;;5.53;76.06;98023.30;108920;1250;97280;-76
2023/05/08 00:49:05;;;;;;;9.60;8.40;;;;;;;5.52;75.99;98029.19;108938;1250;103435;-73
2023/05/08 00:51:34;;;;;;;10.30;8.40;;;;;;;5.51;75.96;98030.98;108928;1250;101215;-72
2023/05/08 00:54:03;;;;;;;10.80;8.80;;;;;;;5.50;75.86;98033.15;108918;1250;99966;-77
2023/05/08 00:56:33;;;;;;;11.70;8.90;;;;;;;5.48;75.88;98032.41;108875;1250;95880;-73
2023/05/08 00:59:03;;;;;;;10.20;8.30;;;;;;;5.47;75.80;98032.57;108927;1250;95977;-73
2023/05/08 01:01:33;;;;;;;10.90;8.10;;;;;;;5.46;75.74;98037.11;108873;1250;102650;-74
2023/05/08 01:04:01;;;;;;;9.90;7.50;;;;;;;5.45;75.85;98039.29;108898;1250;101337;-76
2023/05/08 01:06:29;;;;;;;8.20;7.00;;;;;;;5.45;75.86;98038.95;108847;1250;100244;-73
2023/05/08 01:08:57;;;;;;;8.00;6.80;;;;;;;5.46;75.81;98043.31;108854;1250;95806;-72
2023/05/08 01:11:35;;;;;;;8.50;7.10;;;;;;;5.46;75.71;98043.88;108925;1250;96148;-73
2023/05/08 01:14:34;;;;;;;11.30;7.20;;;;;;;5.45;75.58;98047.86;108895;1250;103651;-73
2023/05/08 01:17:29;;;;;;;11.20;9.30;;;;;;;5.43;75.62;98052.47;108942;1250;101434;-72
2023/05/08 01:20:00;;;;;;;13.70;10.90;;;;;;;5.42;75.70;98055.09;108879;1250;99735;-73
2023/05/08 01:22:37;;;;;;;13.80;11.10;;;;;;;5.41;75.66;98052.95;108867;1250;95539;-73
2023/05/08 01:25:24;;;;;;;14.20;10.90;;;;;;;5.39;75.66;98055.63;108643;1251;96035;-74
2023/05/08 01:28:34;;;;;;;13.80;11.10;;;;;;;5.35;75.59;98052.16;108902;1251;103933;-74
2023/05/08 01:31:05;;;;;;;15.30;12.10;;;;;;;5.32;75.66;98055.35;108296;1259;101129;-73
2023/05/08 01:34:01;;;;;;;14.20;11.40;;;;;;;5.32;75.72;98056.26;108225;1259;99436;-76
2023/05/08 01:36:32;;;;;;;14.70;11.40;;;;;;;5.30;75.71;98058.56;108269;1258;96739;-72
2023/05/08 01:39:26;;;;;;;12.90;10.70;;;;;;;5.27;75.62;98059.30;108254;1258;95763;-73
2023/05/08 01:42:41;;;;;;;13.70;11.10;;;;;;;5.27;75.67;98059.66;108269;1257;103723;-71
2023/05/08 01:45:48;;;;;;;12.70;10.40;;;;;;;5.26;75.74;98055.25;107898;1265;101402;-73
2023/05/08 01:48:35;;;;;;;14.10;11.20;;;;;;;5.25;75.71;98050.75;107346;1270;98860;-74
2023/05/08 01:51:12;;;;;;;13.70;10.60;;;;;;;5.24;75.74;98056.17;107375;1270;95744;-76
2023/05/08 01:53:47;;;;;;;14.30;11.40;;;;;;;5.24;75.78;98055.30;107365;1270;96066;-73
2023/05/08 01:56:23;;;;;;;14.80;10.70;;;;;;;5.24;75.78;98057.30;107376;1270;104326;-72
2023/05/08 01:58:54;;;;;;;13.40;10.50;;;;;;;5.23;75.80;98060.98;107381;1270;101047;-73
2023/05/08 02:01:25;;;;;;;13.70;10.80;;;;;;;5.24;75.85;98061.02;107389;1270;99101;-77
2023/05/08 02:03:54;;;;;;;15.30;11.50;;;;;;;5.24;75.83;98058.85;107379;1271;96347;-72
2023/05/08 02:06:25;;;;;;;19.40;11.70;;;;;;;5.24;75.93;98056.54;107397;1271;96022;-73
2023/05/08 02:08:56;;;;;;;14.50;11.60;;;;;;;5.24;75.85;98061.36;107766;1264;103474;-73
2023/05/08 02:11:25;;;;;;;15.80;12.10;;;;;;;5.24;75.86;98061.39;107893;1265;101892;-73
2023/05/08 02:13:54;;;;;;;16.10;12.90;;;;;;;5.24;75.94;98061.16;107756;1264;100155;-73
2023/05/08 02:16:23;;;;;;;13.80;11.60;;;;;;;5.25;75.90;98060.60;107904;1264;95661;-72
2023/05/08 02:18:56;;;;;;;13.80;11.40;;;;;;;5.23;75.84;98059.64;107916;1264;96100;-73
2023/05/08 02:21:27;;;;;;;13.30;10.90;;;;;;;5.22;75.74;98059.99;107757;1258;103112;-73
2023/05/08 02:23:57;;;;;;;13.40;10.70;;;;;;;5.21;75.76;98063.08;108261;1258;100501;-74
2023/05/08 02:26:27;;;;;;;14.10;11.30;;;;;;;5.21;75.79;98063.64;108918;1250;101563;-73
2023/05/08 02:28:55;;;;;;;15.20;11.90;;;;;;;5.20;75.82;98063.38;108581;1250;96840;-73
2023/05/08 02:31:25;;;;;;;13.90;11.00;;;;;;;5.21;75.79;98064.05;108913;1250;95994;-77
2023/05/08 02:33:54;;;;;;;13.30;10.50;;;;;;;5.21;75.89;98066.85;108977;1250;103739;-74
2023/05/08 02:36:23;;;;;;;13.90;11.50;;;;;;;5.21;75.94;98063.44;108590;1251;101491;-73
2023/05/08 02:38:54;;;;;;;15.30;10.80;;;;;;;5.22;75.96;98065.85;108902;1250;100171;-72
2023/05/08 02:41:24;;;;;;;10.70;9.10;;;;;;;5.21;75.88;98066.48;108564;1250;95797;-75
2023/05/08 02:43:52;;;;;;;11.30;8.50;;;;;;;5.19;75.73;98067.10;108708;1251;96046;-73
2023/05/08 02:46:50;;;;;;;12.00;8.10;;;;;;;5.16;75.59;98065.11;108850;1250;103615;-72
2023/05/08 02:49:38;;;;;;;10.20;7.20;;;;;;;5.15;75.80;98069.98;108236;1257;101281;-74
2023/05/08 02:52:13;;;;;;;9.20;7.80;;;;;;;5.14;75.65;98068.71;108203;1257;100093;-75
2023/05/08 02:54:51;;;;;;;9.60;8.30;;;;;;;5.15;75.67;98068.55;108464;1258;95594;-72
2023/05/08 02:57:29;;;;;;;9.40;8.00;;;;;;;5.17;75.66;98066.45;108324;1257;96072;-75
2023/05/08 03:00:12;;;;;;;9.60;7.60;;;;;;;5.17;75.78;98068.00;108416;1256;103642;-72
2023/05/08 03:02:44;;;;;;;10.10;8.50;;;;;;;5.18;75.74;98071.32;108464;1256;101432;-73
2023/05/08 03:05:26;;;;;;;10.70;8.30;;;;;;;5.16;75.65;98068.80;108431;1256;99875;-73
2023/05/08 03:07:56;;;;;;;15.40;8.90;;;;;;;5.13;75.51;98068.84;108413;1257;95622;-73
2023/05/08 03:10:30;;;;;;;10.30;9.10;;;;;;;5.09;75.52;98067.77;108431;1257;97113;-72
2023/05/08 03:13:00;;;;;;;14.70;9.90;;;;;;;5.08;75.65;98069.14;108316;1257;103528;-76
2023/05/08 03:15:35;;;;;;;10.70;9.20;;;;;;;5.09;75.65;98068.48;108355;1257;101283;-72
2023/05/08 03:18:16;;;;;;;11.10;9.60;;;;;;;5.10;75.72;98069.33;108467;1257;99488;-75
2023/05/08 03:20:54;;;;;;;13.10;10.00;;;;;;;5.09;75.66;98068.66;108410;1256;95756;-73
2023/05/08 03:23:26;;;;;;;12.80;10.80;;;;;;;5.08;75.58;98067.55;108469;1256;96108;-73
2023/05/08 03:25:57;;;;;;;11.30;10.10;;;;;;;5.08;75.65;98066.84;108617;1250;103759;-73
2023/05/08 03:28:27;;;;;;;12.90;10.60;;;;;;;5.06;75.55;98070.77;108935;1250;99551;-72
2023/05/08 03:30:57;;;;;;;11.60;10.10;;;;;;;5.05;75.54;98072.13;108601;1251;98966;-72
2023/05/08 03:33:26;;;;;;;14.00;10.50;;;;;;;5.04;75.56;98072.45;108826;1250;95526;-73
2023/05/08 03:35:56;;;;;;;12.70;9.20;;;;;;;5.02;75.56;98070.36;108913;1250;95990;-73
2023/05/08 03:38:25;;;;;;;11.90;9.60;;;;;;;5.00;75.55;98072.48;108924;1250;103576;-74
2023/05/08 03:40:53;;;;;;;12.90;9.90;;;;;;;5.01;75.65;98069.73;108634;1250;100642;-75
2023/05/08 03:43:23;;;;;;;13.90;9.70;;;;;;;5.03;75.61;98068.84;108952;1250;99982;-76
2023/05/08 03:45:51;;;;;;;10.80;9.20;;;;;;;5.04;75.57;98069.52;108902;1250;95575;-72
2023/05/08 03:48:21;;;;;;;12.30;10.10;;;;;;;5.06;75.60;98073.51;108652;1251;96030;-72
2023/05/08 03:50:50;;;;;;;14.60;9.40;;;;;;;5.07;75.65;98072.42;108912;1250;103539;-72
2023/05/08 03:53:18;;;;;;;10.10;8.90;;;;;;;5.11;75.71;98075.48;108607;1250;100818;-77
2023/05/08 03:55:46;;;;;;;10.70;9.60;;;;;;;5.12;75.59;98077.86;108886;1250;100243;-75
2023/05/08 03:58:31;;;;;;;11.40;8.10;;;;;;;5.10;75.53;98073.70;108921;1250;95575;-72
2023/05/08 04:01:18;;;;;;;11.10;8.10;;;;;;;5.09;75.43;98076.54;108924;1250;96003;-72
2023/05/08 04:04:19;;;;;;;9.20;7.50;;;;;;;5.09;75.34;98077.05;108950;1250;103774;-73
2023/05/08 04:06:55;;;;;;;9.80;7.20;;;;;;;5.08;75.30;98080.48;109003;1250;101475;-74
2023/05/08 04:09:34;;;;;;;8.00;6.80;;;;;;;5.10;75.26;98083.60;108665;1251;99062;-73
2023/05/08 04:12:09;;;;;;;7.70;6.60;;;;;;;5.11;75.21;98086.33;108867;1250;95780;-74
2023/05/08 04:14:44;;;;;;;11.00;7.00;;;;;;;5.13;75.08;98091.69;108928;1250;96024;-72
2023/05/08 04:17:15;;;;;;;9.50;6.60;;;;;;;5.14;75.09;98095.48;108882;1250;103715;-75
2023/05/08 04:19:47;;;;;;;8.30;6.80;;;;;;;5.14;75.00;98094.90;108965;1250;101319;-77
2023/05/08 04:22:18;;;;;;;8.20;6.80;;;;;;;5.16;75.01;98097.02;108623;1251;99759;-74
2023/05/08 04:24:49;;;;;;;10.70;6.00;;;;;;;5.16;75.01;98099.67;108818;1254;95801;-75
2023/05/08 04:27:17;;;;;;;7.40;6.30;;;;;;;5.17;74.91;98101.98;108946;1250;96052;-73
2023/05/08 04:29:45;;;;;;;7.40;6.30;;;;;;;5.17;74.96;98107.44;108978;1250;103947;-73
2023/05/08 04:32:14;;;;;;;7.40;6.00;;;;;;;5.19;75.02;98109.02;108663;1250;101480;-75
2023/05/08 04:34:42;;;;;;;6.80;5.70;;;;;;;5.20;74.88;98115.20;108628;1250;99706;-75
2023/05/08 04:37:28;;;;;;;9.00;6.00;;;;;;;5.19;74.76;98118.98;108922;1250;95599;-74
2023/05/08 04:39:57;;;;;;;6.00;5.20;;;;;;;5.20;74.72;98117.51;108916;1250;95974;-72
2023/05/08 04:42:25;;;;;;;8.10;5.60;;;;;;;5.20;74.58;98121.79;108929;1250;103853;-74
2023/05/08 04:44:56;;;;;;;7.30;4.90;;;;;;;5.19;74.51;98126.19;108981;1250;101530;-75
2023/05/08 04:47:24;;;;;;;8.20;5.50;;;;;;;5.20;74.50;98123.73;108902;1250;99546;-73
2023/05/08 04:49:52;;;;;;;5.80;5.10;;;;;;;5.22;74.44;98125.51;108907;1250;95564;-73
2023/05/08 04:52:20;;;;;;;5.90;5.00;;;;;;;5.22;74.23;98126.69;108914;1250;95898;-72
2023/05/08 04:54:48;;;;;;;6.80;4.90;;;;;;;5.22;74.18;98128.16;108931;1250;103679;-72
2023/05/08 04:57:16;;;;;;;7.40;4.90;;;;;;;5.21;74.09;98130.09;108916;1250;101350;-75
2023/05/08 04:59:44;;;;;;;6.10;5.40;;;;;;;5.17;73.92;98132.27;108530;1250;99608;-73
2023/05/08 05:02:12;;;;;;;8.40;6.40;;;;;;;5.17;74.00;98137.59;108912;1250;95570;-75
2023/05/08 05:04:40;;;;;;;7.60;6.10;;;;;;;5.19;73.93;98139.13;108590;1251;97114;-72
2023/05/08 05:07:08;;;;;;;6.30;5.40;;;;;;;5.20;73.95;98140.37;108919;1250;103689;-73
2023/05/08 05:09:38;;;;;;;6.90;6.10;;;;;;;5.20;73.97;98140.26;108907;1250;100289;-71
2023/05/08 05:12:07;;;;;;;7.20;5.40;;;;;;;5.20;73.91;98142.33;108918;1250;100024;-72
2023/05/08 05:14:35;;;;;;;6.70;5.50;;;;;;;5.18;74.00;98146.93;108862;1250;95502;-75
2023/05/08 05:17:03;;;;;;;8.70;5.90;;;;;;;5.20;73.99;98151.77;108939;1250;95950;-72
2023/05/08 05:19:31;;;;;;;12.30;5.60;;;;;;;5.21;73.88;98156.81;108926;1250;103580;-73
2023/05/08 05:21:59;;;;;;;9.00;5.90;;;;;;;5.22;73.93;98156.20;108606;1251;101568;-77
2023/05/08 05:24:27;;;;;;;8.40;6.20;;;;;;;5.23;73.83;98159.05;108651;1250;99841;-71
2023/05/08 05:26:55;;;;;;;9.20;6.60;;;;;;;5.25;73.89;98161.23;108586;1250;95938;-73
2023/05/08 05:29:23;;;;;;;7.90;5.00;;;;;;;5.26;73.74;98162.21;108871;1250;96017;-73
2023/05/08 05:31:51;;;;;;;9.10;5.90;;;;;;;5.26;73.68;98164.66;108949;1250;103591;-76
2023/05/08 05:34:20;;;;;;;7.00;5.40;;;;;;;5.27;73.46;98161.92;108886;1255;101732;-73
2023/05/08 05:36:48;;;;;;;14.40;6.50;;;;;;;5.26;73.23;98164.15;108835;1250;98953;-77
2023/05/08 05:39:16;;;;;;;9.50;6.10;;;;;;;5.25;73.08;98163.14;108884;1250;95871;-75
2023/05/08 05:41:44;;;;;;;10.00;5.60;;;;;;;5.24;72.97;98163.11;108921;1250;96059;-77
2023/05/08 05:44:12;;;;;;;6.50;5.10;;;;;;;5.23;72.98;98167.67;108652;1250;103748;-72
2023/05/08 05:46:40;;;;;;;7.20;4.90;;;;;;;5.23;72.93;98168.95;108903;1251;100596;-74
2023/05/08 05:49:08;;;;;;;9.30;8.00;;;;;;;5.23;73.06;98176.52;108637;1251;99905;-73
2023/05/08 05:51:36;;;;;;;9.30;8.00;;;;;;;5.24;73.20;98174.73;108632;1251;95658;-74
2023/05/08 05:54:04;;;;;;;9.60;7.80;;;;;;;5.23;73.30;98176.61;108926;1250;95948;-73
2023/05/08 05:56:32;;;;;;;10.10;8.20;;;;;;;5.22;73.38;98178.27;108931;1251;103692;-73
2023/05/08 05:59:01;;;;;;;10.80;7.80;;;;;;;5.21;73.33;98179.81;108964;1250;101709;-72
2023/05/08 06:01:29;;;;;;;10.20;8.40;;;;;;;5.19;73.23;98178.98;108524;1250;99659;-73
2023/05/08 06:03:57;;;;;;;10.60;7.70;;;;;;;5.16;73.17;98183.38;108901;1250;95541;-73
2023/05/08 06:06:25;;;;;;;12.00;7.80;;;;;;;5.14;73.30;98183.09;108884;1250;96021;-73
2023/05/08 06:08:53;;;;;;;9.00;6.60;;;;;;;5.15;73.31;98187.45;108943;1251;103659;-73
2023/05/08 06:11:21;;;;;;;7.50;6.70;;;;;;;5.16;73.26;98185.55;108943;1250;101288;-73
2023/05/08 06:13:49;;;;;;;8.60;6.80;;;;;;;5.19;73.19;98185.73;108465;1251;99175;-73
2023/05/08 06:16:19;;;;;;;8.90;6.80;;;;;;;5.25;73.25;98188.71;108895;1254;95527;-75
2023/05/08 06:18:47;;;;;;;8.00;6.10;;;;;;;5.32;73.22;98190.59;108900;1251;96007;-73
2023/05/08 06:21:16;;;;;;;6.50;5.60;;;;;;;5.40;73.17;98189.95;108551;1251;102806;-72
2023/05/08 06:23:44;;;;;;;10.10;7.10;;;;;;;5.49;73.29;98191.23;108892;1250;101279;-73
2023/05/08 06:26:12;;;;;;;8.30;6.60;;;;;;;5.58;73.28;98194.75;108864;1251;99918;-74
2023/05/08 06:28:40;;;;;;;11.30;7.40;;;;;;;5.65;73.35;98198.45;108859;1250;95542;-73
2023/05/08 06:31:08;;;;;;;8.10;6.60;;;;;;;5.71;73.28;98202.21;108900;1251;96476;-77
2023/05/08 06:33:37;;;;;;;8.10;6.90;;;;;;;5.74;73.09;98203.30;108922;1254;102711;-72
2023/05/08 06:36:06;;;;;;;8.60;6.90;;;;;;;5.77;73.03;98208.41;108934;1251;101736;-73
2023/05/08 06:38:34;;;;;;;8.30;6.50;;;;;;;5.79;72.78;98206.77;108883;1250;100123;-73
2023/05/08 06:41:02;;;;;;;7.50;6.70;;;;;;;5.82;72.70;98211.30;108873;1250;95515;-73
2023/05/08 06:43:30;;;;;;;12.00;7.50;;;;;;;5.84;72.71;98212.52;108601;1251;96576;-73
2023/05/08 06:45:58;;;;;;;8.50;6.90;;;;;;;5.86;72.63;98214.93;108903;1251;103485;-71
2023/05/08 06:48:27;;;;;;;9.40;6.40;;;;;;;5.89;72.60;98217.86;108910;1250;101307;-74
2023/05/08 06:50:56;;;;;;;6.80;5.70;;;;;;;5.92;72.56;98221.84;108874;1251;100047;-73
2023/05/08 06:53:24;;;;;;;7.00;6.20;;;;;;;5.94;72.41;98223.59;108853;1251;95668;-73
2023/05/08 06:55:52;;;;;;;12.50;6.80;;;;;;;5.96;72.39;98224.91;108580;1251;96041;-73
2023/05/08 06:58:20;;;;;;;12.20;6.70;;;;;;;5.95;72.29;98228.11;108915;1250;103580;-71
2023/05/08 07:00:48;;;;;;;7.60;6.70;;;;;;;5.98;72.41;98234.08;108919;1251;101410;-73
2023/05/08 07:03:16;;;;;;;7.00;6.30;;;;;;;6.00;72.13;98234.58;108877;1250;99592;-72
2023/05/08 07:05:44;;;;;;;9.30;6.60;;;;;;;5.99;72.06;98236.21;108801;1251;95860;-73
2023/05/08 07:08:12;;;;;;;9.20;7.10;;;;;;;5.97;72.06;98240.27;108946;1250;95782;-73
2023/05/08 07:10:40;;;;;;;12.20;8.00;;;;;;;5.98;71.95;98239.80;108912;1251;103106;-72
2023/05/08 07:13:09;;;;;;;10.20;6.80;;;;;;;6.03;71.99;98238.48;108890;1250;108748;-71
2023/05/08 07:15:37;;;;;;;9.50;6.80;;;;;;;6.10;72.02;98242.27;108866;1251;99932;-75
2023/05/08 07:18:05;;;;;;;8.60;6.50;;;;;;;6.18;71.81;98244.61;108890;1250;95615;-75
2023/05/08 07:20:34;;;;;;;8.60;7.10;;;;;;;6.21;71.66;98246.63;108585;1251;96126;-75
2023/05/08 07:23:02;;;;;;;8.20;6.20;;;;;;;6.23;71.30;98248.38;108919;1251;103839;-74
2023/05/08 07:25:31;;;;;;;9.20;6.40;;;;;;;6.24;71.27;98251.31;108650;1251;101568;-73
2023/05/08 07:27:59;;;;;;;6.90;6.00;;;;;;;6.30;71.37;98249.91;108860;1250;100430;-75
2023/05/08 07:30:27;;;;;;;6.90;6.10;;;;;;;6.39;71.18;98250.23;108751;1251;95593;-74
2023/05/08 07:32:55;;;;;;;8.20;5.90;;;;;;;6.48;71.22;98249.05;108842;1251;96094;-73
2023/05/08 07:35:23;;;;;;;7.80;5.90;;;;;;;6.60;71.24;98252.38;108790;1251;102531;-73
2023/05/08 07:37:51;;;;;;;6.60;5.60;;;;;;;6.71;71.21;98251.89;108821;1251;101378;-71
2023/05/08 07:40:19;;;;;;;8.10;5.90;;;;;;;6.76;70.83;98248.80;108844;1251;99913;-73
2023/05/08 07:42:47;;;;;;;9.10;6.10;;;;;;;6.78;70.59;98248.46;108836;1251;95867;-73
2023/05/08 07:45:15;;;;;;;7.50;5.60;;;;;;;6.82;70.39;98248.50;108839;1251;96476;-72
2023/05/08 07:47:54;;;;;;;7.10;5.00;;;;;;;6.87;70.47;98250.98;108830;1251;103471;-77
2023/05/08 07:50:24;;;;;;;6.00;5.30;;;;;;;6.94;70.15;98248.51;108930;1250;101400;-73
2023/05/08 07:52:53;;;;;;;5.50;5.00;;;;;;;6.96;69.59;98248.85;108828;1251;99905;-73
2023/05/08 07:55:21;;;;;;;7.00;5.30;;;;;;;7.01;69.90;98252.52;108893;1251;95604;-73
2023/05/08 07:57:49;;;;;;;7.70;5.60;;;;;;;7.09;69.72;98254.39;108878;1250;95951;-73
2023/05/08 08:00:18;;;;;;;8.10;4.80;;;;;;;7.16;69.58;98259.48;109036;1251;102601;-73
2023/05/08 08:02:46;;;;;;;7.60;5.00;;;;;;;7.22;69.12;98262.02;108794;1251;101219;-72
2023/05/08 08:05:14;;;;;;;8.90;5.60;;;;;;;7.28;68.81;98259.77;108878;1251;100256;-73
2023/05/08 08:07:42;;;;;;;5.60;4.50;;;;;;;7.30;68.56;98261.88;108801;1251;95618;-76
2023/05/08 08:10:11;;;;;;;5.40;4.90;;;;;;;7.28;68.57;98260.10;108817;1249;96146;-72
2023/05/08 08:12:39;;;;;;;8.20;5.20;;;;;;;7.33;68.72;98261.17;108948;1250;103277;-75
2023/05/08 08:15:08;;;;;;;6.20;4.70;;;;;;;7.37;68.60;98258.44;108876;1251;100624;-73
2023/05/08 08:17:36;;;;;;;6.70;5.00;;;;;;;7.39;68.50;98256.14;108595;1251;99331;-74
2023/05/08 08:20:04;;;;;;;8.30;4.50;;;;;;;7.43;68.01;98257.56;108848;1250;95583;-73
2023/05/08 08:22:33;;;;;;;5.60;4.20;;;;;;;7.46;68.03;98259.84;108589;1251;96101;-73
2023/05/08 08:25:01;;;;;;;5.20;3.90;;;;;;;7.51;67.88;98266.27;108754;1251;103020;-74
2023/05/08 08:27:29;;;;;;;6.20;3.90;;;;;;;7.53;67.54;98266.73;108730;1251;101444;-74
2023/05/08 08:29:57;;;;;;;7.80;4.80;;;;;;;7.53;67.54;98273.55;108649;1250;99126;-72
2023/05/08 08:32:25;;;;;;;5.90;4.40;;;;;;;7.55;67.57;98273.71;108745;1251;95612;-72
2023/05/08 08:34:53;;;;;;;9.50;4.90;;;;;;;7.60;67.73;98270.52;108555;1251;95975;-72
2023/05/08 08:37:22;;;;;;;7.30;4.30;;;;;;;7.64;67.37;98271.34;108816;1251;102658;-75
2023/05/08 08:39:50;;;;;;;7.50;5.00;;;;;;;7.65;67.28;98269.42;108933;1251;101417;-72
2023/05/08 08:42:18;;;;;;;5.50;4.00;;;;;;;7.66;67.16;98266.77;108878;1250;100042;-72
2023/05/08 08:44:46;;;;;;;4.50;3.90;;;;;;;7.66;66.80;98268.05;108794;1251;95826;-73
2023/05/08 08:47:17;;;;;;;5.30;4.10;;;;;;;7.66;66.75;98267.64;108862;1251;96016;-74
2023/05/08 08:49:51;;;;;;;4.70;3.90;;;;;;;7.70;66.97;98263.48;108596;1254;102253;-73
2023/05/08 08:52:29;;;;;;;5.60;4.30;;;;;;;7.76;66.85;98266.74;108906;1250;100336;-73
2023/05/08 08:55:00;;;;;;;7.00;3.90;;;;;;;7.78;66.51;98267.35;108821;1251;99894;-72
2023/05/08 08:57:32;;;;;;;4.80;3.50;;;;;;;7.84;66.56;98266.35;108748;1251;95771;-73
2023/05/08 09:00:04;;;;;;;5.10;3.90;;;;;;;7.97;66.43;98261.93;108828;1251;96025;-72
2023/05/08 09:02:32;;;;;;;9.20;3.70;;;;;;;8.10;66.48;98265.17;108919;1249;103811;-72
2023/05/08 09:05:02;;;;;;;5.60;3.50;;;;;;;8.25;66.58;98266.86;108800;1251;101152;-72
2023/05/08 09:07:30;;;;;;;5.60;3.50;;;;;;;8.38;65.66;98267.02;108833;1251;98722;-73
2023/05/08 09:09:59;;;;;;;5.30;3.10;;;;;;;8.43;65.61;98271.42;108820;1251;95837;-72
2023/05/08 09:12:27;;;;;;;4.80;3.10;;;;;;;8.46;65.17;98270.19;108783;1251;96531;-75
2023/05/08 09:14:55;;;;;;;4.40;2.70;;;;;;;8.47;64.82;98272.23;108754;1251;103650;-72
2023/05/08 09:17:24;;;;;;;3.50;2.90;;;;;;;8.45;64.83;98272.09;108690;1251;100671;-72
2023/05/08 09:19:53;;;;;;;4.20;3.20;;;;;;;8.43;64.36;98273.08;108867;1250;99531;-73
2023/05/08 09:22:23;;;;;;;6.30;3.60;;;;;;;8.33;63.98;98272.89;108818;1250;95747;-72
2023/05/08 09:24:59;;;;;;;5.90;3.70;;;;;;;8.27;64.07;98271.95;108768;1250;96020;-74
2023/05/08 09:27:28;;;;;;;4.20;3.10;;;;;;;8.30;64.18;98275.21;108563;1251;214988;-76
2023/05/08 09:30:03;;;;;;;5.40;3.80;;;;;;;8.39;63.95;98273.50;108741;1251;101374;-73
2023/05/08 09:32:32;;;;;;;5.40;3.00;;;;;;;8.46;63.94;98273.96;108822;1251;99929;-75
2023/05/08 09:35:01;;;;;;;5.70;3.00;;;;;;;8.49;63.85;98276.63;108762;1250;95664;-74
2023/05/08 09:37:29;;;;;;;5.20;3.20;;;;;;;8.48;63.43;98279.77;108760;1251;96388;-76
2023/05/08 09:40:21;;;;;;;3.70;3.00;;;;;;;8.48;63.49;98284.07;108786;1251;103652;-72
2023/05/08 09:42:50;;;;;;;3.20;2.80;;;;;;;8.48;63.13;98288.58;108842;1250;101400;-74
2023/05/08 09:45:34;;;;;;;4.60;3.20;;;;;;;8.39;62.77;98287.98;108856;1250;100118;-74
2023/05/08 09:48:02;;;;;;;5.40;3.30;;;;;;;8.31;62.75;98290.90;108832;1250;95580;-72
2023/05/08 09:50:31;;;;;;;6.20;3.40;;;;;;;8.26;62.61;98295.22;108901;1250;96023;-72
2023/05/08 09:52:59;;;;;;;4.90;4.00;;;;;;;8.23;62.96;98291.05;108864;1250;103495;-72
2023/05/08 09:55:28;;;;;;;4.20;3.30;;;;;;;8.22;62.79;98289.52;108859;1251;100473;-75
2023/05/08 09:57:58;;;;;;;5.90;3.80;;;;;;;8.26;62.90;98291.29;108809;1251;99436;-74
2023/05/08 10:00:28;;;;;;;4.30;3.20;;;;;;;8.32;62.79;98289.23;108500;1251;96738;-75
2023/05/08 10:03:01;;;;;;;4.50;3.30;;;;;;;8.37;62.56;98297.39;108842;1250;96229;-71
2023/05/08 10:05:35;;;;;;;6.00;2.90;;;;;;;8.40;62.61;98297.65;108830;1250;103858;-74
2023/05/08 10:08:21;;;;;;;5.90;4.00;;;;;;;8.41;62.87;98302.48;108793;1250;101486;-72
2023/05/08 10:10:50;;;;;;;4.60;3.60;;;;;;;8.44;62.85;98300.42;108681;1250;99677;-72
2023/05/08 10:13:18;;;;;;;7.90;3.70;;;;;;;8.45;62.85;98298.08;108792;1251;95612;-74
2023/05/08 10:15:54;;;;;;;4.20;3.80;;;;;;;8.46;62.98;98301.73;108885;1250;95992;-75
2023/05/08 10:18:26;;;;;;;4.10;3.40;;;;;;;8.47;62.72;98299.83;108899;1250;103446;-73
2023/05/08 10:20:57;;;;;;;6.10;4.20;;;;;;;8.41;62.46;98299.63;108715;1251;101339;-72
2023/05/08 10:23:26;;;;;;;4.40;4.00;;;;;;;8.35;62.43;98299.08;108802;1250;99588;-74
2023/05/08 10:25:58;;;;;;;4.70;4.10;;;;;;;8.33;62.68;98296.48;108854;1250;95544;-75
2023/05/08 10:28:37;;;;;;;4.20;3.70;;;;;;;8.34;62.48;98291.98;108856;1250;95647;-73
2023/05/08 10:31:08;;;;;;;5.00;3.50;;;;;;;8.36;62.15;98288.61;108744;1251;103172;-73
2023/05/08 10:33:40;;;;;;;5.00;3.80;;;;;;;8.42;62.27;98289.33;108852;1250;101268;-74
2023/05/08 10:36:12;;;;;;;6.10;4.00;;;;;;;8.55;62.02;98286.19;108740;1251;98508;-76
2023/05/08 10:38:42;;;;;;;4.80;4.10;;;;;;;8.63;61.64;98284.36;108797;1250;95612;-75
2023/05/08 10:41:11;;;;;;;5.20;3.90;;;;;;;8.60;61.30;98286.80;108855;1250;96308;-72
2023/05/08 10:43:42;;;;;;;5.00;4.50;;;;;;;8.61;61.23;98285.48;108641;1250;103208;-72
2023/05/08 10:46:26;;;;;;;9.30;4.50;;;;;;;8.62;61.03;98285.17;108833;1250;99173;-73
2023/05/08 10:48:58;;;;;;;6.50;4.50;;;;;;;8.63;61.00;98286.35;108834;1250;100000;-72
2023/05/08 10:51:33;;;;;;;9.10;4.40;;;;;;;8.67;61.05;98284.62;108816;1250;95530;-72
2023/05/08 10:54:20;;;;;;;5.60;4.60;;;;;;;8.72;60.84;98282.63;108791;1251;96006;-72
2023/05/08 10:56:49;;;;;;;7.30;4.90;;;;;;;8.76;60.80;98277.27;108789;1251;103576;-73
2023/05/08 10:59:21;;;;;;;11.30;5.40;;;;;;;8.84;61.12;98277.52;108581;1251;102410;-71
2023/05/08 11:01:50;;;;;;;7.10;4.80;;;;;;;8.93;61.00;98269.98;108777;1250;100140;-75
2023/05/08 11:04:24;;;;;;;7.00;5.00;;;;;;;9.00;60.97;98276.02;108304;1251;95698;-72
2023/05/08 11:06:52;;;;;;;7.50;4.60;;;;;;;9.04;60.87;98276.23;108791;1250;96001;-75
2023/05/08 11:09:28;;;;;;;6.10;5.20;;;;;;;9.06;60.70;98275.23;108877;1250;103598;-72
2023/05/08 11:12:21;;;;;;;5.70;4.60;;;;;;;9.14;60.80;98269.01;108863;1250;101381;-72
2023/05/08 11:15:05;;;;;;;8.10;4.80;;;;;;;9.24;59.94;98268.23;108740;1253;100165;-70
2023/05/08 11:17:34;;;;;;;6.50;5.00;;;;;;;9.26;59.70;98269.52;108784;1251;95785;-73
2023/05/08 11:20:05;;;;;;;6.30;5.00;;;;;;;9.30;59.95;98269.77;108789;1251;95999;-75
2023/05/08 11:22:37;;;;;;;7.30;4.20;;;;;;;9.32;59.59;98268.11;108721;1253;103475;-71
2023/05/08 11:25:07;;;;;;;8.20;4.40;;;;;;;9.33;59.22;98266.22;108753;1252;100603;-74
2023/05/08 11:27:41;;;;;;;6.20;4.60;;;;;;;9.32;59.42;98266.65;108769;1251;98660;-72
2023/05/08 11:30:19;;;;;;;6.10;4.20;;;;;;;9.33;59.65;98268.63;108785;1251;95600;-73
2023/05/08 11:33:05;;;;;;;8.70;4.70;;;;;;;9.34;59.50;98266.70;108815;1251;96377;-73
2023/05/08 11:35:45;;;;;;;5.20;4.50;;;;;;;9.31;59.30;98267.97;108843;1251;103481;-73
2023/05/08 11:38:31;;;;;;;7.10;4.30;;;;;;;9.26;59.16;98267.32;108844;1251;101390;-73
2023/05/08 11:41:04;;;;;;;4.90;4.40;;;;;;;9.17;59.18;98271.47;108736;1253;108340;-75
2023/05/08 11:44:03;;;;;;;7.20;4.90;;;;;;;9.17;58.86;98274.79;108753;1251;95789;-77
2023/05/08 11:46:54;;;;;;;7.50;4.90;;;;;;;9.16;58.82;98270.20;108315;1255;96502;-72